Time;durP1;ratioP1;P1;durP2;ratioP2;P2;SDS_P1;SDS_P2;PMS_P1;PMS_P2;Temp;Humidity;BMP_temperature;BMP_pressure;BME280_temperature;BME280_humidity;BME280_pressure;Samples;Min_cycle;Max_cycle;Signal;HPM_P1;HPM_P2
2021/03/30 00:01:22;;;;;;;;;35.00;31.00;;;;;;;;3723715;37;20577;-62
2021/03/30 00:03:47;;;;;;;;;33.75;29.75;;;;;;;;3724232;37;20575;-62
2021/03/30 00:06:13;;;;;;;;;32.50;29.25;;;;;;;;3724891;37;17634;-63
2021/03/30 00:08:39;;;;;;;;;36.75;31.75;;;;;;;;3724975;38;17894;-62
2021/03/30 00:11:05;;;;;;;;;35.25;31.00;;;;;;;;3725057;37;17634;-63
2021/03/30 00:13:31;;;;;;;;;42.00;38.00;;;;;;;;3724910;37;20573;-62
2021/03/30 00:15:57;;;;;;;;;39.50;34.25;;;;;;;;3724834;37;20592;-62
2021/03/30 00:18:22;;;;;;;;;46.00;38.00;;;;;;;;3725525;37;17893;-61
2021/03/30 00:20:49;;;;;;;;;41.25;34.75;;;;;;;;3725079;38;17615;-61
2021/03/30 00:23:16;;;;;;;;;47.50;33.50;;;;;;;;3724832;37;17635;-62
2021/03/30 00:25:44;;;;;;;;;32.75;26.00;;;;;;;;3724416;37;20596;-62
2021/03/30 00:28:12;;;;;;;;;36.00;30.50;;;;;;;;3724704;37;20567;-61
2021/03/30 00:30:38;;;;;;;;;35.50;27.50;;;;;;;;3724740;38;21553;-63
2021/03/30 00:33:04;;;;;;;;;26.75;24.25;;;;;;;;3724188;38;20577;-62
2021/03/30 00:35:33;;;;;;;;;33.25;27.50;;;;;;;;3724931;37;20556;-63
2021/03/30 00:37:59;;;;;;;;;28.75;23.75;;;;;;;;3724167;38;21724;-62
2021/03/30 00:40:27;;;;;;;;;33.75;30.50;;;;;;;;3724799;37;20477;-62
2021/03/30 00:42:53;;;;;;;;;32.00;28.50;;;;;;;;3724930;37;17609;-62
2021/03/30 00:45:21;;;;;;;;;34.25;30.00;;;;;;;;3724757;38;21537;-62
2021/03/30 00:47:47;;;;;;;;;37.25;30.75;;;;;;;;3724217;38;21553;-63
2021/03/30 00:50:16;;;;;;;;;41.75;34.25;;;;;;;;3724767;38;21536;-62
2021/03/30 00:52:43;;;;;;;;;33.00;30.50;;;;;;;;3724761;37;21529;-63
2021/03/30 00:55:10;;;;;;;;;39.50;34.00;;;;;;;;3724362;38;21548;-62
2021/03/30 00:57:36;;;;;;;;;41.50;33.75;;;;;;;;3724706;37;21524;-63
2021/03/30 01:00:09;;;;;;;;;35.75;30.50;;;;;;;;3724810;37;21548;-62
2021/03/30 01:02:39;;;;;;;;;42.50;35.00;;;;;;;;3724694;37;21538;-62
2021/03/30 01:05:09;;;;;;;;;33.75;28.50;;;;;;;;3724654;38;20594;-63
2021/03/30 01:07:35;;;;;;;;;36.50;30.50;;;;;;;;3725238;37;20605;-62
2021/03/30 01:10:26;;;;;;;;;32.00;28.00;;;;;;;;3725223;37;20561;-63
2021/03/30 01:13:10;;;;;;;;;31.50;28.00;;;;;;;;3725232;37;20587;-63
2021/03/30 01:16:01;;;;;;;;;31.25;28.00;;;;;;;;3725105;37;20623;-63
2021/03/30 01:18:33;;;;;;;;;42.50;36.25;;;;;;;;3725159;38;20595;-62
2021/03/30 01:21:17;;;;;;;;;42.50;32.00;;;;;;;;3725233;37;20562;-61
2021/03/30 01:23:57;;;;;;;;;39.50;30.75;;;;;;;;3725199;38;20587;-62
2021/03/30 01:26:41;;;;;;;;;50.75;42.00;;;;;;;;3724964;37;20572;-60
2021/03/30 01:29:38;;;;;;;;;58.25;46.25;;;;;;;;3725329;38;20619;-61
2021/03/30 01:32:05;;;;;;;;;36.25;34.75;;;;;;;;3725321;37;20561;-62
2021/03/30 01:34:32;;;;;;;;;43.25;39.00;;;;;;;;3725300;37;20551;-62
2021/03/30 01:36:59;;;;;;;;;46.25;40.50;;;;;;;;3724835;38;20782;-60
2021/03/30 01:39:26;;;;;;;;;64.50;47.25;;;;;;;;3725275;38;20549;-62
2021/03/30 01:41:52;;;;;;;;;60.75;45.25;;;;;;;;3725237;38;20538;-62
2021/03/30 01:44:20;;;;;;;;;59.00;47.75;;;;;;;;3725229;38;20567;-62
2021/03/30 01:46:47;;;;;;;;;58.25;46.25;;;;;;;;3725173;38;20550;-62
2021/03/30 01:49:14;;;;;;;;;49.50;33.00;;;;;;;;3725206;37;20530;-62
2021/03/30 01:51:42;;;;;;;;;38.25;32.00;;;;;;;;3725301;37;20541;-62
2021/03/30 01:54:10;;;;;;;;;34.25;33.25;;;;;;;;3725134;37;20533;-63
2021/03/30 01:56:36;;;;;;;;;60.75;49.00;;;;;;;;3725203;38;20545;-62
2021/03/30 01:59:03;;;;;;;;;36.50;32.00;;;;;;;;3725239;37;20530;-62
2021/03/30 02:01:29;;;;;;;;;44.00;39.25;;;;;;;;3725217;38;20520;-62
2021/03/30 02:03:57;;;;;;;;;35.00;31.25;;;;;;;;3724920;37;21431;-61
2021/03/30 02:06:23;;;;;;;;;38.00;31.50;;;;;;;;3724728;37;21445;-63
2021/03/30 02:08:50;;;;;;;;;41.25;36.50;;;;;;;;3724836;37;21446;-63
2021/03/30 02:11:27;;;;;;;;;50.00;41.75;;;;;;;;3724333;38;21474;-62
2021/03/30 02:13:56;;;;;;;;;38.75;35.00;;;;;;;;3724674;37;21444;-62
2021/03/30 02:16:45;;;;;;;;;39.25;35.50;;;;;;;;3724382;38;21449;-62
2021/03/30 02:19:13;;;;;;;;;41.25;35.75;;;;;;;;3724716;37;21453;-62
2021/03/30 02:21:45;;;;;;;;;43.75;34.50;;;;;;;;3724845;38;21413;-62
2021/03/30 02:24:12;;;;;;;;;40.25;33.25;;;;;;;;3724720;38;21425;-61
2021/03/30 02:26:41;;;;;;;;;35.25;32.00;;;;;;;;3724813;37;21433;-61
2021/03/30 02:29:10;;;;;;;;;39.75;33.25;;;;;;;;3724778;37;21424;-61
2021/03/30 02:31:43;;;;;;;;;40.50;32.50;;;;;;;;3724747;38;21391;-62
2021/03/30 02:34:09;;;;;;;;;33.75;29.00;;;;;;;;3724952;37;21419;-61
2021/03/30 02:36:36;;;;;;;;;34.00;24.50;;;;;;;;3724681;37;21407;-64
2021/03/30 02:39:05;;;;;;;;;32.50;28.00;;;;;;;;3724857;38;21384;-61
2021/03/30 02:41:32;;;;;;;;;27.50;23.25;;;;;;;;3724802;37;21406;-62
2021/03/30 02:43:58;;;;;;;;;32.25;29.50;;;;;;;;3724953;38;21381;-62
2021/03/30 02:46:25;;;;;;;;;41.00;31.75;;;;;;;;3724893;37;21364;-62
2021/03/30 02:48:52;;;;;;;;;45.00;36.25;;;;;;;;3724276;38;21398;-61
2021/03/30 02:51:18;;;;;;;;;58.75;41.00;;;;;;;;3724944;37;21390;-62
2021/03/30 02:53:45;;;;;;;;;46.50;41.50;;;;;;;;3725257;37;21356;-61
2021/03/30 02:56:11;;;;;;;;;34.00;26.75;;;;;;;;3725234;38;17401;-63
2021/03/30 02:58:37;;;;;;;;;40.75;29.00;;;;;;;;3723962;38;21385;-60
2021/03/30 03:01:04;;;;;;;;;32.50;28.25;;;;;;;;3724752;37;21390;-61
2021/03/30 03:03:32;;;;;;;;;30.25;23.50;;;;;;;;3725103;37;18387;-61
2021/03/30 03:05:59;;;;;;;;;29.75;24.00;;;;;;;;3724818;38;21359;-62
2021/03/30 03:08:25;;;;;;;;;33.25;29.50;;;;;;;;3724316;37;21337;-62
2021/03/30 03:10:52;;;;;;;;;37.00;30.50;;;;;;;;3725108;38;21366;-63
2021/03/30 03:13:18;;;;;;;;;34.50;26.75;;;;;;;;3724961;38;21369;-62
2021/03/30 03:15:45;;;;;;;;;32.25;28.25;;;;;;;;3724772;38;21367;-60
2021/03/30 03:18:11;;;;;;;;;29.00;26.50;;;;;;;;3724784;37;21335;-61
2021/03/30 03:20:38;;;;;;;;;28.00;26.50;;;;;;;;3725048;37;21335;-61
2021/03/30 03:23:05;;;;;;;;;38.00;32.00;;;;;;;;3725127;38;21329;-63
2021/03/30 03:25:31;;;;;;;;;32.75;29.75;;;;;;;;3724488;37;21335;-61
2021/03/30 03:27:59;;;;;;;;;79.00;61.50;;;;;;;;3724821;38;21323;-61
2021/03/30 03:30:26;;;;;;;;;37.00;33.25;;;;;;;;3724999;37;18370;-61
2021/03/30 03:32:53;;;;;;;;;38.25;35.00;;;;;;;;3724778;37;21329;-62
2021/03/30 03:35:19;;;;;;;;;42.75;36.25;;;;;;;;3724869;37;21403;-61
2021/03/30 03:37:46;;;;;;;;;34.00;33.00;;;;;;;;3724424;38;21315;-61
2021/03/30 03:40:16;;;;;;;;;35.75;32.00;;;;;;;;3724799;37;21214;-61
2021/03/30 03:42:41;;;;;;;;;34.00;30.25;;;;;;;;3724931;38;21483;-61
2021/03/30 03:45:08;;;;;;;;;31.50;26.25;;;;;;;;3725126;37;21306;-62
2021/03/30 03:47:34;;;;;;;;;29.75;27.50;;;;;;;;3724969;37;18349;-61
2021/03/30 03:50:02;;;;;;;;;29.25;24.00;;;;;;;;3724951;38;21223;-61
2021/03/30 03:52:30;;;;;;;;;54.75;45.25;;;;;;;;3725254;38;18340;-61
2021/03/30 03:54:58;;;;;;;;;41.75;38.25;;;;;;;;3725094;38;21307;-63
2021/03/30 03:57:34;;;;;;;;;33.50;31.75;;;;;;;;3724902;38;21293;-60
2021/03/30 04:00:00;;;;;;;;;30.00;28.75;;;;;;;;3724972;38;21272;-61
2021/03/30 04:02:45;;;;;;;;;43.00;32.75;;;;;;;;3724912;37;21282;-61
2021/03/30 04:05:12;;;;;;;;;35.25;30.50;;;;;;;;3725058;38;21284;-62
2021/03/30 04:07:48;;;;;;;;;36.75;31.50;;;;;;;;3724961;37;21280;-62
2021/03/30 04:10:19;;;;;;;;;38.00;31.75;;;;;;;;3724874;37;21281;-61
2021/03/30 04:12:45;;;;;;;;;38.25;35.00;;;;;;;;3724972;37;21253;-62
2021/03/30 04:15:27;;;;;;;;;48.00;37.50;;;;;;;;3724989;37;21261;-63
2021/03/30 04:17:53;;;;;;;;;42.50;30.00;;;;;;;;3724924;38;21257;-62
2021/03/30 04:20:19;;;;;;;;;44.50;36.75;;;;;;;;3724728;37;21259;-61
2021/03/30 04:22:51;;;;;;;;;49.75;40.75;;;;;;;;3724769;38;21262;-61
2021/03/30 04:25:17;;;;;;;;;48.25;41.50;;;;;;;;3724422;38;21227;-62
2021/03/30 04:27:43;;;;;;;;;50.00;40.50;;;;;;;;3724886;37;21261;-61
2021/03/30 04:30:10;;;;;;;;;54.25;47.25;;;;;;;;3724824;37;18278;-62
2021/03/30 04:32:36;;;;;;;;;51.50;41.50;;;;;;;;3724824;38;18290;-61
2021/03/30 04:35:03;;;;;;;;;64.50;53.50;;;;;;;;3724487;37;21227;-62
2021/03/30 04:37:28;;;;;;;;;61.50;45.75;;;;;;;;3724286;38;21231;-61
2021/03/30 04:39:54;;;;;;;;;70.50;54.00;;;;;;;;3725036;38;21229;-62
2021/03/30 04:42:20;;;;;;;;;55.50;46.50;;;;;;;;3724715;38;18270;-61
2021/03/30 04:44:47;;;;;;;;;61.00;49.25;;;;;;;;3725111;38;18258;-61
2021/03/30 04:47:13;;;;;;;;;62.50;53.50;;;;;;;;3724889;37;18244;-61
2021/03/30 04:49:39;;;;;;;;;58.50;45.50;;;;;;;;3725118;38;21198;-62
2021/03/30 04:52:05;;;;;;;;;57.25;43.00;;;;;;;;3725136;37;18233;-61
2021/03/30 04:54:32;;;;;;;;;64.50;50.25;;;;;;;;3726230;37;18335;-63
2021/03/30 04:56:59;;;;;;;;;70.75;52.00;;;;;;;;3725212;37;21207;-64
2021/03/30 04:59:27;;;;;;;;;68.00;49.25;;;;;;;;3722896;38;21242;-61
2021/03/30 05:01:53;;;;;;;;;84.50;64.50;;;;;;;;3724216;37;21187;-60
2021/03/30 05:04:20;;;;;;;;;64.75;45.25;;;;;;;;3725258;37;18241;-61
2021/03/30 05:06:45;;;;;;;;;59.50;49.00;;;;;;;;3725379;37;18212;-60
2021/03/30 05:09:11;;;;;;;;;59.00;46.75;;;;;;;;3725042;37;21200;-61
2021/03/30 05:11:37;;;;;;;;;64.50;44.50;;;;;;;;3725008;38;18231;-62
2021/03/30 05:14:03;;;;;;;;;53.00;43.50;;;;;;;;3725158;37;18236;-62
2021/03/30 05:16:28;;;;;;;;;40.25;39.50;;;;;;;;3725452;38;18213;-64
2021/03/30 05:18:54;;;;;;;;;64.50;51.00;;;;;;;;3723612;38;18236;-62
2021/03/30 05:21:22;;;;;;;;;76.75;57.75;;;;;;;;3724380;37;18209;-62
2021/03/30 05:23:47;;;;;;;;;79.00;58.75;;;;;;;;3724286;37;18208;-62
2021/03/30 05:26:14;;;;;;;;;54.25;44.75;;;;;;;;3725191;38;21164;-67
2021/03/30 05:28:39;;;;;;;;;69.75;53.00;;;;;;;;3725551;38;18205;-63
2021/03/30 05:31:05;;;;;;;;;64.75;51.00;;;;;;;;3726020;38;21164;-62
2021/03/30 05:33:31;;;;;;;;;57.25;38.75;;;;;;;;3724971;37;18190;-61
2021/03/30 05:35:57;;;;;;;;;43.00;34.25;;;;;;;;3724658;38;18191;-62
2021/03/30 05:38:23;;;;;;;;;29.75;27.50;;;;;;;;3725004;38;18187;-62
2021/03/30 05:40:49;;;;;;;;;39.50;35.50;;;;;;;;3725226;37;18209;-62
2021/03/30 05:43:15;;;;;;;;;45.75;38.25;;;;;;;;3724902;38;18187;-62
2021/03/30 05:45:41;;;;;;;;;44.50;37.75;;;;;;;;3724971;38;21162;-64
2021/03/30 05:48:11;;;;;;;;;47.25;38.25;;;;;;;;3725090;37;21158;-62
2021/03/30 05:50:37;;;;;;;;;41.25;37.25;;;;;;;;3725005;38;21140;-64
2021/03/30 05:53:06;;;;;;;;;55.00;42.00;;;;;;;;3724965;37;21145;-63
2021/03/30 05:55:33;;;;;;;;;52.00;40.00;;;;;;;;3724967;37;18189;-63
2021/03/30 05:58:01;;;;;;;;;49.75;40.50;;;;;;;;3724565;37;21120;-64
2021/03/30 06:00:42;;;;;;;;;38.50;34.00;;;;;;;;3724997;38;21161;-62
2021/03/30 06:03:14;;;;;;;;;41.50;36.25;;;;;;;;3724857;37;21130;-62
2021/03/30 06:05:41;;;;;;;;;42.00;35.75;;;;;;;;3725011;37;21109;-64
2021/03/30 06:08:07;;;;;;;;;41.75;34.75;;;;;;;;3724960;38;21104;-63
2021/03/30 06:10:34;;;;;;;;;49.75;40.25;;;;;;;;3724986;38;21103;-63
2021/03/30 06:13:00;;;;;;;;;41.75;37.75;;;;;;;;3724956;37;21096;-63
2021/03/30 06:15:32;;;;;;;;;47.50;38.75;;;;;;;;3724822;38;21116;-63
2021/03/30 06:18:00;;;;;;;;;45.75;39.00;;;;;;;;3725045;38;21108;-65
2021/03/30 06:20:30;;;;;;;;;45.00;37.50;;;;;;;;3725086;38;21096;-63
2021/03/30 06:22:59;;;;;;;;;46.25;38.75;;;;;;;;3724895;37;21080;-64
2021/03/30 06:25:44;;;;;;;;;48.75;38.25;;;;;;;;3724835;37;21098;-64
2021/03/30 06:28:20;;;;;;;;;41.00;37.75;;;;;;;;3725009;37;21095;-63
2021/03/30 06:31:09;;;;;;;;;50.75;43.25;;;;;;;;3724893;37;21080;-65
2021/03/30 06:33:43;;;;;;;;;55.75;46.25;;;;;;;;3724999;37;21068;-64
2021/03/30 06:36:19;;;;;;;;;61.75;44.25;;;;;;;;3725126;37;21063;-61
2021/03/30 06:38:46;;;;;;;;;54.00;42.00;;;;;;;;3725087;38;21077;-63
2021/03/30 06:41:46;;;;;;;;;52.00;41.50;;;;;;;;3725117;37;21091;-61
2021/03/30 06:44:28;;;;;;;;;46.25;39.75;;;;;;;;3725180;38;21248;-61
2021/03/30 06:46:59;;;;;;;;;50.00;40.50;;;;;;;;3725156;37;21081;-59
2021/03/30 06:49:25;;;;;;;;;45.75;39.75;;;;;;;;3725053;37;21069;-62
2021/03/30 06:51:51;;;;;;;;;49.75;43.25;;;;;;;;3725492;37;21048;-62
2021/03/30 06:54:17;;;;;;;;;49.50;41.75;;;;;;;;3724998;37;21074;-62
2021/03/30 06:56:56;;;;;;;;;43.25;37.75;;;;;;;;3724323;38;18090;-61
2021/03/30 06:59:22;;;;;;;;;47.00;36.75;;;;;;;;3724523;37;21053;-61
2021/03/30 07:01:51;;;;;;;;;53.50;42.25;;;;;;;;3724872;38;21054;-60
2021/03/30 07:04:19;;;;;;;;;42.75;36.75;;;;;;;;3725050;37;21023;-59
2021/03/30 07:06:54;;;;;;;;;46.50;36.75;;;;;;;;3724991;37;21021;-62
2021/03/30 07:09:20;;;;;;;;;48.50;38.50;;;;;;;;3724959;37;21045;-62
2021/03/30 07:11:46;;;;;;;;;44.00;39.00;;;;;;;;3724934;37;21029;-61
2021/03/30 07:14:12;;;;;;;;;46.00;37.50;;;;;;;;3725032;38;21034;-59
2021/03/30 07:16:53;;;;;;;;;58.25;48.25;;;;;;;;3724248;37;18046;-61
2021/03/30 07:19:23;;;;;;;;;41.50;35.75;;;;;;;;3724250;38;21020;-62
2021/03/30 07:22:07;;;;;;;;;50.50;38.75;;;;;;;;3724914;37;21004;-62
2021/03/30 07:24:46;;;;;;;;;40.75;34.75;;;;;;;;3725576;37;21021;-62
2021/03/30 07:27:20;;;;;;;;;45.00;37.75;;;;;;;;3725504;38;21015;-62
2021/03/30 07:29:47;;;;;;;;;53.00;41.25;;;;;;;;3726757;37;21006;-62
2021/03/30 07:32:30;;;;;;;;;53.50;41.50;;;;;;;;3725294;38;20993;-64
2021/03/30 07:34:59;;;;;;;;;57.75;46.50;;;;;;;;3725084;37;21154;-63
2021/03/30 07:37:53;;;;;;;;;45.00;39.25;;;;;;;;3725071;38;21009;-62
2021/03/30 07:40:20;;;;;;;;;46.25;37.25;;;;;;;;3724971;37;21010;-63
2021/03/30 07:42:47;;;;;;;;;51.50;42.00;;;;;;;;3725043;38;21012;-63
2021/03/30 07:45:14;;;;;;;;;56.00;43.25;;;;;;;;3725170;37;20994;-61
2021/03/30 07:47:41;;;;;;;;;53.25;41.75;;;;;;;;3725064;37;20975;-61
2021/03/30 07:50:08;;;;;;;;;41.75;33.25;;;;;;;;3724945;37;20980;-64
2021/03/30 07:52:38;;;;;;;;;55.25;44.00;;;;;;;;3725275;37;20964;-64
2021/03/30 07:55:42;;;;;;;;;50.75;39.25;;;;;;;;3725230;37;21000;-63
2021/03/30 07:58:11;;;;;;;;;49.75;39.50;;;;;;;;3725342;37;21317;-65
2021/03/30 08:00:47;;;;;;;;;52.50;41.75;;;;;;;;3725157;38;20961;-65
2021/03/30 08:03:16;;;;;;;;;48.00;39.50;;;;;;;;3725381;37;20953;-68
2021/03/30 08:05:41;;;;;;;;;50.50;41.50;;;;;;;;3726704;37;20947;-65
2021/03/30 08:08:23;;;;;;;;;45.00;38.75;;;;;;;;3726292;37;20975;-63
2021/03/30 08:10:51;;;;;;;;;46.25;38.50;;;;;;;;3725273;37;18004;-62
2021/03/30 08:13:25;;;;;;;;;49.00;39.25;;;;;;;;3725046;37;20943;-63
2021/03/30 08:15:56;;;;;;;;;47.50;38.25;;;;;;;;3725170;38;20939;-63
2021/03/30 08:18:23;;;;;;;;;47.00;37.00;;;;;;;;3725131;37;20951;-63
2021/03/30 08:20:57;;;;;;;;;39.25;35.25;;;;;;;;3724977;38;20949;-63
2021/03/30 08:23:23;;;;;;;;;44.25;36.00;;;;;;;;3725348;37;20934;-63
2021/03/30 08:25:52;;;;;;;;;45.25;37.50;;;;;;;;3725330;38;20923;-63
2021/03/30 08:28:36;;;;;;;;;38.50;35.00;;;;;;;;3725093;38;20925;-65
2021/03/30 08:31:03;;;;;;;;;45.25;38.00;;;;;;;;3725097;38;20969;-62
2021/03/30 08:33:33;;;;;;;;;33.25;27.75;;;;;;;;3725242;37;20926;-63
2021/03/30 08:36:18;;;;;;;;;25.50;24.00;;;;;;;;3725183;37;20813;-65
2021/03/30 08:38:46;;;;;;;;;21.50;17.00;;;;;;;;3725071;38;20814;-65
2021/03/30 08:41:13;;;;;;;;;16.25;15.25;;;;;;;;3725099;37;20805;-64
2021/03/30 08:43:38;;;;;;;;;17.00;15.75;;;;;;;;3719167;38;20808;-63
2021/03/30 08:46:13;;;;;;;;;16.00;15.25;;;;;;;;3720419;37;20809;-63
2021/03/30 08:48:48;;;;;;;;;22.25;19.00;;;;;;;;3725050;37;17942;-65
2021/03/30 08:51:15;;;;;;;;;19.25;17.75;;;;;;;;3725290;37;20821;-63
2021/03/30 08:53:41;;;;;;;;;19.75;15.00;;;;;;;;3725026;38;20823;-64
2021/03/30 08:56:10;;;;;;;;;20.25;19.25;;;;;;;;3725127;37;20820;-64
2021/03/30 08:59:01;;;;;;;;;20.25;18.00;;;;;;;;3724955;37;17940;-64
2021/03/30 09:01:27;;;;;;;;;22.00;19.50;;;;;;;;3725227;38;20807;-64
2021/03/30 09:03:53;;;;;;;;;20.00;19.75;;;;;;;;3725084;37;20890;-62
2021/03/30 09:06:36;;;;;;;;;23.50;22.50;;;;;;;;3725080;37;20857;-64
2021/03/30 09:09:03;;;;;;;;;17.75;17.00;;;;;;;;3725007;37;20791;-63
2021/03/30 09:11:35;;;;;;;;;16.50;16.50;;;;;;;;3725098;38;20774;-63
2021/03/30 09:14:07;;;;;;;;;18.75;16.00;;;;;;;;3724918;38;20767;-64
2021/03/30 09:16:33;;;;;;;;;13.50;9.50;;;;;;;;3725089;37;20724;-64
2021/03/30 09:19:17;;;;;;;;;19.00;17.00;;;;;;;;3725048;37;20682;-63
2021/03/30 09:21:43;;;;;;;;;20.00;20.00;;;;;;;;3725035;38;20761;-69
2021/03/30 09:24:19;;;;;;;;;19.50;16.75;;;;;;;;3724521;37;20747;-63
2021/03/30 09:26:48;;;;;;;;;22.00;18.75;;;;;;;;3724979;37;20757;-63
2021/03/30 09:29:16;;;;;;;;;29.00;25.75;;;;;;;;3725048;37;20744;-62
2021/03/30 09:31:42;;;;;;;;;20.50;18.00;;;;;;;;3725048;38;20759;-63
2021/03/30 09:34:08;;;;;;;;;17.75;16.75;;;;;;;;3725165;38;20733;-64
2021/03/30 09:36:40;;;;;;;;;19.00;15.75;;;;;;;;3725127;37;20760;-63
2021/03/30 09:39:06;;;;;;;;;9.75;9.25;;;;;;;;3725156;37;20820;-65
2021/03/30 09:41:42;;;;;;;;;13.00;11.75;;;;;;;;3725006;38;20691;-66
2021/03/30 09:44:08;;;;;;;;;16.50;15.25;;;;;;;;3725150;37;17859;-62
2021/03/30 09:46:34;;;;;;;;;9.00;7.25;;;;;;;;3725159;37;20736;-62
2021/03/30 09:49:01;;;;;;;;;19.75;17.25;;;;;;;;3724848;37;20586;-66
2021/03/30 09:51:27;;;;;;;;;17.25;15.75;;;;;;;;3724881;37;20727;-64
2021/03/30 09:53:56;;;;;;;;;20.25;17.75;;;;;;;;3724917;37;20721;-63
2021/03/30 09:56:22;;;;;;;;;23.25;21.75;;;;;;;;3725170;38;20700;-62
2021/03/30 09:58:55;;;;;;;;;23.00;19.75;;;;;;;;3724973;37;20731;-64
2021/03/30 10:01:22;;;;;;;;;21.50;21.50;;;;;;;;3724901;38;20704;-61
2021/03/30 10:03:48;;;;;;;;;18.00;16.25;;;;;;;;3724827;37;20739;-63
2021/03/30 10:06:18;;;;;;;;;15.75;15.75;;;;;;;;3724935;38;20715;-63
2021/03/30 10:08:49;;;;;;;;;18.00;17.00;;;;;;;;3724858;37;20686;-63
2021/03/30 10:11:27;;;;;;;;;14.00;13.00;;;;;;;;3724981;38;20685;-64
2021/03/30 10:13:53;;;;;;;;;25.50;19.25;;;;;;;;3724854;37;20689;-63
2021/03/30 10:16:19;;;;;;;;;20.25;18.25;;;;;;;;3724997;37;20691;-63
2021/03/30 10:18:45;;;;;;;;;18.75;18.00;;;;;;;;3725016;37;17818;-64
2021/03/30 10:21:18;;;;;;;;;19.25;18.25;;;;;;;;3724812;37;17817;-63
2021/03/30 10:23:49;;;;;;;;;21.50;18.25;;;;;;;;3725087;38;20660;-64
2021/03/30 10:26:22;;;;;;;;;14.00;14.00;;;;;;;;3725066;38;20671;-64
2021/03/30 10:28:51;;;;;;;;;19.50;16.50;;;;;;;;3725054;38;20631;-65
2021/03/30 10:31:50;;;;;;;;;18.00;17.25;;;;;;;;3725014;38;20674;-65
2021/03/30 10:34:23;;;;;;;;;15.00;13.50;;;;;;;;3724752;38;20674;-63
2021/03/30 10:36:53;;;;;;;;;19.25;17.00;;;;;;;;3724967;37;20642;-64
2021/03/30 10:39:29;;;;;;;;;15.25;14.00;;;;;;;;3725186;37;20675;-64
2021/03/30 10:42:02;;;;;;;;;19.75;15.50;;;;;;;;3726633;38;20671;-64
2021/03/30 10:44:44;;;;;;;;;20.50;19.00;;;;;;;;3726066;38;20666;-62
2021/03/30 10:47:14;;;;;;;;;19.00;18.25;;;;;;;;3725052;38;20663;-64
2021/03/30 10:49:40;;;;;;;;;17.50;17.25;;;;;;;;3725018;38;20661;-66
2021/03/30 10:52:09;;;;;;;;;20.50;18.50;;;;;;;;3724984;37;20664;-62
2021/03/30 10:54:37;;;;;;;;;25.75;24.25;;;;;;;;3725040;37;17808;-63
2021/03/30 10:57:05;;;;;;;;;22.25;19.75;;;;;;;;3725075;38;20642;-63
2021/03/30 10:59:31;;;;;;;;;16.00;15.75;;;;;;;;3725136;38;20635;-63
2021/03/30 11:01:57;;;;;;;;;16.00;14.75;;;;;;;;3725292;37;20613;-64
2021/03/30 11:04:22;;;;;;;;;16.50;15.50;;;;;;;;3725179;37;17770;-63
2021/03/30 11:06:53;;;;;;;;;18.50;16.75;;;;;;;;3725273;38;17750;-63
2021/03/30 11:09:19;;;;;;;;;18.00;17.25;;;;;;;;3724816;38;17755;-63
2021/03/30 11:11:45;;;;;;;;;14.25;13.25;;;;;;;;3724670;37;20668;-64
2021/03/30 11:14:11;;;;;;;;;15.25;14.25;;;;;;;;3724980;38;20629;-63
2021/03/30 11:16:38;;;;;;;;;15.00;14.00;;;;;;;;3725146;37;17750;-63
2021/03/30 11:19:06;;;;;;;;;20.25;18.25;;;;;;;;3724574;38;17744;-65
2021/03/30 11:21:32;;;;;;;;;19.00;17.75;;;;;;;;3725050;37;20588;-64
2021/03/30 11:24:03;;;;;;;;;18.25;15.50;;;;;;;;3724593;38;20556;-63
2021/03/30 11:26:29;;;;;;;;;13.25;12.00;;;;;;;;3725161;37;20595;-63
2021/03/30 11:28:56;;;;;;;;;19.50;18.75;;;;;;;;3725152;38;20594;-63
2021/03/30 11:37:23;;;;;;;;;20.00;17.25;;;;;;;;3725145;38;20589;-63
2021/03/30 11:39:46;;;;;;;;;18.75;17.25;;;;;;;;3725119;38;20554;-65
2021/03/30 11:42:12;;;;;;;;;23.50;22.75;;;;;;;;3725511;37;20580;-62
2021/03/30 11:44:38;;;;;;;;;21.50;20.50;;;;;;;;3726908;38;20439;-62
2021/03/30 11:47:10;;;;;;;;;20.00;19.00;;;;;;;;3727536;37;20676;-62
2021/03/30 11:49:36;;;;;;;;;23.75;22.50;;;;;;;;3726113;37;20564;-63
2021/03/30 11:52:02;;;;;;;;;18.75;17.25;;;;;;;;3725190;38;20570;-64
2021/03/30 11:54:28;;;;;;;;;22.00;21.00;;;;;;;;3725147;38;20647;-64
2021/03/30 11:56:54;;;;;;;;;17.75;15.50;;;;;;;;3725191;38;20555;-62
2021/03/30 11:59:20;;;;;;;;;16.50;16.00;;;;;;;;3725272;38;20596;-63
2021/03/30 12:01:46;;;;;;;;;20.50;19.00;;;;;;;;3725167;38;17692;-63
2021/03/30 12:04:11;;;;;;;;;21.75;20.75;;;;;;;;3725148;38;17704;-64
2021/03/30 12:06:37;;;;;;;;;20.00;19.25;;;;;;;;3725286;37;17659;-65
2021/03/30 12:09:03;;;;;;;;;20.00;18.75;;;;;;;;3725133;37;17692;-64
2021/03/30 12:11:30;;;;;;;;;20.50;19.25;;;;;;;;3725177;38;17686;-64
2021/03/30 12:13:56;;;;;;;;;20.25;17.50;;;;;;;;3725072;38;20530;-63
2021/03/30 12:16:22;;;;;;;;;17.50;16.75;;;;;;;;3725132;37;20554;-65
2021/03/30 12:18:48;;;;;;;;;15.75;14.75;;;;;;;;3725216;37;20551;-63
2021/03/30 12:21:13;;;;;;;;;14.50;12.50;;;;;;;;3725343;37;17668;-64
2021/03/30 12:23:39;;;;;;;;;16.00;13.75;;;;;;;;3725221;37;17666;-64
2021/03/30 12:26:05;;;;;;;;;15.50;15.25;;;;;;;;3724956;38;17668;-63
2021/03/30 12:28:31;;;;;;;;;22.25;19.25;;;;;;;;3725260;38;17657;-66
2021/03/30 12:30:56;;;;;;;;;15.25;14.00;;;;;;;;3725149;38;17658;-63
2021/03/30 12:33:22;;;;;;;;;16.50;15.25;;;;;;;;3725123;38;17666;-63
2021/03/30 12:35:48;;;;;;;;;15.50;15.25;;;;;;;;3724988;37;17620;-65
2021/03/30 12:38:14;;;;;;;;;17.50;16.50;;;;;;;;3725109;37;17649;-64
2021/03/30 12:40:45;;;;;;;;;20.00;17.75;;;;;;;;3725274;37;17649;-66
2021/03/30 12:43:11;;;;;;;;;16.50;15.50;;;;;;;;3725165;37;20530;-64
2021/03/30 12:45:36;;;;;;;;;16.50;15.00;;;;;;;;3725026;37;20799;-64
2021/03/30 12:48:06;;;;;;;;;17.75;16.50;;;;;;;;3725234;38;17642;-64
2021/03/30 12:50:32;;;;;;;;;19.00;17.50;;;;;;;;3725156;38;17621;-64
2021/03/30 12:52:58;;;;;;;;;18.00;17.25;;;;;;;;3725070;37;20582;-65
2021/03/30 12:55:24;;;;;;;;;16.50;16.00;;;;;;;;3724908;38;21505;-63
2021/03/30 12:57:50;;;;;;;;;18.25;16.25;;;;;;;;3724878;38;17618;-63
2021/03/30 13:00:17;;;;;;;;;17.50;16.00;;;;;;;;3724855;37;20505;-63
2021/03/30 13:02:43;;;;;;;;;13.00;12.75;;;;;;;;3724986;37;18597;-63
2021/03/30 13:05:10;;;;;;;;;20.75;18.00;;;;;;;;3724985;38;20504;-63
2021/03/30 13:07:35;;;;;;;;;20.00;19.50;;;;;;;;3725101;37;20518;-64
2021/03/30 13:10:01;;;;;;;;;20.00;19.00;;;;;;;;3725369;38;21488;-63
2021/03/30 13:12:32;;;;;;;;;23.25;20.50;;;;;;;;3725292;37;17599;-64
2021/03/30 13:14:58;;;;;;;;;20.50;18.75;;;;;;;;3725229;37;20467;-64
2021/03/30 13:17:24;;;;;;;;;17.25;14.50;;;;;;;;3725792;38;21441;-63
2021/03/30 13:19:50;;;;;;;;;12.50;11.50;;;;;;;;3725534;38;21475;-63
2021/03/30 13:22:18;;;;;;;;;20.75;20.00;;;;;;;;3725250;38;18595;-62
2021/03/30 13:24:44;;;;;;;;;15.75;13.75;;;;;;;;3725128;37;18558;-63
2021/03/30 13:27:11;;;;;;;;;19.00;16.25;;;;;;;;3724878;37;21443;-64
2021/03/30 13:29:38;;;;;;;;;18.25;17.25;;;;;;;;3725270;38;18548;-62
2021/03/30 13:32:08;;;;;;;;;15.50;14.00;;;;;;;;3725153;37;21475;-62
2021/03/30 13:34:34;;;;;;;;;20.50;18.75;;;;;;;;3725068;37;21421;-62
2021/03/30 13:36:59;;;;;;;;;23.50;20.25;;;;;;;;3724922;38;21438;-64
2021/03/30 13:39:25;;;;;;;;;19.00;18.25;;;;;;;;3724982;38;18563;-64
2021/03/30 13:41:57;;;;;;;;;20.75;17.50;;;;;;;;3725106;38;18556;-64
2021/03/30 13:44:24;;;;;;;;;23.00;21.25;;;;;;;;3725205;38;18535;-65
2021/03/30 13:46:50;;;;;;;;;20.00;20.00;;;;;;;;3725081;37;21408;-63
2021/03/30 13:49:16;;;;;;;;;19.75;17.75;;;;;;;;3724782;38;21414;-65
2021/03/30 13:51:43;;;;;;;;;18.25;17.00;;;;;;;;3724998;37;21457;-65
2021/03/30 13:54:09;;;;;;;;;19.00;16.25;;;;;;;;3724854;37;21430;-63
2021/03/30 13:56:35;;;;;;;;;19.75;18.00;;;;;;;;3724974;37;21439;-64
2021/03/30 13:59:01;;;;;;;;;14.00;13.00;;;;;;;;3725009;37;21431;-63
2021/03/30 14:01:27;;;;;;;;;17.00;16.75;;;;;;;;3725183;37;17517;-64
2021/03/30 14:03:53;;;;;;;;;12.25;12.00;;;;;;;;3723660;37;21469;-63
2021/03/30 14:06:18;;;;;;;;;13.25;13.25;;;;;;;;3725150;38;18518;-64
2021/03/30 14:08:44;;;;;;;;;14.00;13.25;;;;;;;;3725159;38;18504;-63
2021/03/30 14:11:10;;;;;;;;;17.00;12.75;;;;;;;;3725233;37;18523;-63
2021/03/30 14:13:57;;;;;;;;;14.00;14.00;;;;;;;;3725173;38;18514;-64
2021/03/30 14:16:33;;;;;;;;;14.75;14.75;;;;;;;;3725434;38;18532;-64
2021/03/30 14:19:13;;;;;;;;;15.75;14.75;;;;;;;;3725275;38;21395;-64
2021/03/30 14:21:44;;;;;;;;;17.25;14.75;;;;;;;;3725329;38;21376;-63
2021/03/30 14:24:37;;;;;;;;;12.00;11.50;;;;;;;;3725119;38;21405;-64
2021/03/30 14:27:03;;;;;;;;;28.75;25.25;;;;;;;;3725208;38;21365;-63
2021/03/30 14:29:29;;;;;;;;;15.50;13.25;;;;;;;;3725040;37;21366;-66
2021/03/30 14:31:55;;;;;;;;;18.50;16.50;;;;;;;;3725226;37;18512;-64
2021/03/30 14:34:21;;;;;;;;;20.25;19.25;;;;;;;;3725368;37;18503;-63